RJAA/NRT METAR and TAF weather

Enter ICAO airport designator
Station Type Date Time Source
RJAA METAR 2022/01/25 04:30 UTC NOAA

RJAA 250430Z 06008KT 360V090 9999 FEW030 BKN050 BKN/// 08/M02 Q1019 BECMG 08006KT


Station Type Date Time Source
RJAA Decoded METAR 2022/01/25 04:30 UTC NOAA

New Tokyo Inter-National Airport, Japan (RJAA) 35-46N 140-23E 44M
Jan 24, 2022 - 11:30 PM EST / 2022.01.25 0430 UTC
Wind: from the ENE (060 degrees) at 9 MPH (8 KT) (direction variable):0
Visibility: greater than 7 mile(s):0
Sky conditions: mostly cloudy
Temperature: 46 F (8 C)
Dew Point: 28 F (-2 C)
Relative Humidity: 49%
Pressure (altimeter): 30.09 in. Hg (1019 hPa)
ob: RJAA 250430Z 06008KT 360V090 9999 FEW030 BKN050 BKN/// 08/M02 Q1019 BECMG 08006KT
cycle: 4

Station Type Date Time Source
RJAA TAF 2022/01/24 18:38 UTC NOAA

TAF RJAA 241705Z 2418/2600 35006KT 9999 FEW030
BECMG 2503/2505 08005KT
BECMG 2509/2512 35010KT
TEMPO 2515/2600 4000 -RA BR FEW004 BKN008

Example: see airport list